createdAt,value
2018-12-30T00:04:05.366Z,5.7
2018-12-30T00:19:17.908Z,5.7
2018-12-30T00:34:30.338Z,5.7
2018-12-30T00:49:43.021Z,5.8
2018-12-30T01:04:55.645Z,5.9
2018-12-30T01:20:04.506Z,6
2018-12-30T01:35:20.869Z,5.9
2018-12-30T01:50:33.575Z,5.8
2018-12-30T02:05:46.158Z,5.7
2018-12-30T02:20:58.769Z,5.7
2018-12-30T02:36:13.053Z,5.7
2018-12-30T02:51:23.814Z,5.6
2018-12-30T03:06:36.436Z,5.6
2018-12-30T03:21:48.870Z,5.7
2018-12-30T03:36:58.945Z,5.8
2018-12-30T03:52:14.295Z,5.8
2018-12-30T04:07:26.853Z,5.8
2018-12-30T04:22:39.332Z,5.8
2018-12-30T04:37:42.923Z,5.9
2018-12-30T04:53:04.626Z,6
2018-12-30T05:08:17.265Z,6.2
2018-12-30T05:23:30.059Z,6.4
2018-12-30T05:38:42.938Z,6.5
2018-12-30T05:53:54.122Z,6.8
2018-12-30T06:09:08.788Z,6.8
2018-12-30T06:24:21.715Z,6.7
2018-12-30T06:39:34.838Z,6.4
2018-12-30T06:54:39.178Z,6.3
2018-12-30T07:10:00.160Z,6.2
2018-12-30T07:25:12.839Z,6
2018-12-30T07:40:25.540Z,6
2018-12-30T07:55:38.308Z,6
2018-12-30T08:10:50.171Z,6
2018-12-30T08:26:03.815Z,5.9
2018-12-30T08:41:16.280Z,5.9
2018-12-30T08:56:29.019Z,6
2018-12-30T09:11:34.503Z,6
2018-12-30T09:26:54.414Z,6
2018-12-30T09:42:07.097Z,6
2018-12-30T09:57:19.728Z,5.9
2018-12-30T10:12:32.404Z,6
2018-12-30T10:27:45.129Z,6.1
2018-12-30T10:42:57.895Z,6.3
2018-12-30T10:58:11.370Z,6.3
2018-12-30T11:13:23.742Z,6.5
2018-12-30T11:28:30.880Z,6.5
2018-12-30T11:43:49.442Z,6.7
2018-12-30T11:59:02.551Z,7.3
2018-12-30T12:14:15.559Z,7.2
2018-12-30T12:29:28.769Z,7.1
2018-12-30T12:44:41.794Z,7.1
2018-12-30T12:59:54.965Z,7.3
2018-12-30T13:15:08.001Z,7.4
2018-12-30T13:30:21.325Z,7.9
2018-12-30T13:45:29.155Z,7.6
2018-12-30T14:00:47.774Z,7.6
2018-12-30T14:16:01.511Z,7.4
2018-12-30T14:31:14.478Z,7.4
2018-12-30T14:46:33.685Z,7.3
2018-12-30T15:01:40.483Z,7.2
2018-12-30T15:16:53.588Z,7.1
2018-12-30T15:32:06.520Z,7.1
2018-12-30T15:47:20.247Z,7.1
2018-12-30T16:02:27.946Z,7.1
2018-12-30T16:17:45.763Z,7.1
2018-12-30T16:32:58.819Z,7.1
2018-12-30T16:48:12.022Z,7.1
2018-12-30T17:03:25.038Z,7.1
2018-12-30T17:18:38.058Z,7.2
2018-12-30T17:33:51.264Z,7.2
2018-12-30T17:49:04.678Z,7.1
2018-12-30T18:04:17.348Z,7.1
2018-12-30T18:19:27.078Z,7.1
2018-12-30T18:34:43.445Z,7.1
2018-12-30T18:49:56.591Z,7.1
2018-12-30T19:05:09.653Z,7
2018-12-30T19:20:23.005Z,7
2018-12-30T19:35:35.747Z,6.9
2018-12-30T19:50:48.694Z,6.8
2018-12-30T20:06:01.672Z,6.7
2018-12-30T20:21:14.502Z,6.7
2018-12-30T20:36:24.619Z,6.6
2018-12-30T20:51:40.316Z,6.6
2018-12-30T21:06:53.196Z,6.6
2018-12-30T21:22:06.010Z,6.3
2018-12-30T21:37:09.741Z,6.1
2018-12-30T21:52:31.431Z,6
2018-12-30T22:07:44.237Z,6.7
2018-12-30T22:22:57.087Z,6.1
2018-12-30T22:38:11.044Z,6
2018-12-30T22:53:21.036Z,5.9
2018-12-30T23:08:34.906Z,5.7
2018-12-30T23:23:47.450Z,5.6
2018-12-30T23:39:00.182Z,5.6
2018-12-30T23:54:05.310Z,5.5
